Time;durP1;ratioP1;P1;durP2;ratioP2;P2;SDS_P1;SDS_P2;PMS_P1;PMS_P2;Temp;Humidity;BMP_temperature;BMP_pressure;BME280_temperature;BME280_humidity;BME280_pressure;Samples;Min_cycle;Max_cycle;Signal;HPM_P1;HPM_P2
2023/04/06 00:00:36;;;;;;;12.07;8.20;;;8.00;51.50;;;;;;5072668;28;20614;-72
2023/04/06 00:03:03;;;;;;;14.43;9.03;;;8.00;51.30;;;;;;5070590;28;20452;-73
2023/04/06 00:05:30;;;;;;;10.13;7.60;;;8.00;51.40;;;;;;5072908;28;20478;-73
2023/04/06 00:07:59;;;;;;;9.93;6.93;;;7.90;51.70;;;;;;5072101;28;20459;-73
2023/04/06 00:10:27;;;;;;;9.43;6.37;;;7.90;51.70;;;;;;5070243;28;20849;-73
2023/04/06 00:12:56;;;;;;;6.47;5.30;;;7.90;52.00;;;;;;5070890;28;21035;-72
2023/04/06 00:15:23;;;;;;;5.57;4.93;;;7.80;51.80;;;;;;5071764;28;21111;-72
2023/04/06 00:17:50;;;;;;;5.77;5.00;;;7.80;51.70;;;;;;5070904;28;20452;-73
2023/04/06 00:20:18;;;;;;;6.40;5.50;;;7.80;51.50;;;;;;5078406;28;20528;-73
2023/04/06 00:22:46;;;;;;;8.17;6.73;;;7.80;51.70;;;;;;5071898;28;20487;-73
2023/04/06 00:25:15;;;;;;;12.27;8.03;;;7.80;51.90;;;;;;5072372;28;20459;-73
2023/04/06 00:27:43;;;;;;;14.10;9.53;;;7.80;51.80;;;;;;5071763;28;20814;-73
2023/04/06 00:30:11;;;;;;;13.80;8.33;;;7.80;51.90;;;;;;5071534;28;20529;-73
2023/04/06 00:32:38;;;;;;;18.30;11.20;;;7.70;51.80;;;;;;5071446;28;20559;-73
2023/04/06 00:35:06;;;;;;;21.73;12.53;;;7.70;51.90;;;;;;5071193;28;20505;-72
2023/04/06 00:37:33;;;;;;;16.87;9.73;;;7.70;51.90;;;;;;5071543;28;20857;-72
2023/04/06 00:40:00;;;;;;;11.77;7.10;;;7.70;52.00;;;;;;5071286;28;20533;-73
2023/04/06 00:42:27;;;;;;;12.10;7.20;;;7.70;52.20;;;;;;5070894;28;20478;-73
2023/04/06 00:44:57;;;;;;;9.80;7.30;;;7.60;52.10;;;;;;5071623;28;20456;-72
2023/04/06 00:47:24;;;;;;;8.73;6.10;;;7.70;52.40;;;;;;5071155;28;21002;-73
2023/04/06 00:49:51;;;;;;;6.60;5.70;;;7.60;52.60;;;;;;5071092;28;20509;-72
2023/04/06 00:52:19;;;;;;;8.03;5.50;;;7.60;52.60;;;;;;5070697;28;20479;-74
2023/04/06 00:54:46;;;;;;;8.67;6.73;;;7.60;52.90;;;;;;5071648;28;20819;-73
2023/04/06 00:57:14;;;;;;;9.80;7.50;;;7.50;52.90;;;;;;5071605;28;20487;-74
2023/04/06 00:59:41;;;;;;;8.70;6.70;;;7.50;52.70;;;;;;5070272;28;20531;-73
2023/04/06 01:02:10;;;;;;;9.40;6.30;;;7.50;52.60;;;;;;5071449;28;20455;-73
2023/04/06 01:04:37;;;;;;;7.97;4.97;;;7.50;52.80;;;;;;5071282;28;20506;-73
2023/04/06 01:07:04;;;;;;;6.53;4.90;;;7.50;53.10;;;;;;5070887;28;21147;-73
2023/04/06 01:09:32;;;;;;;6.37;4.97;;;7.50;53.50;;;;;;5071143;28;20564;-72
2023/04/06 01:11:59;;;;;;;7.40;4.97;;;7.40;53.10;;;;;;5070561;28;20524;-72
2023/04/06 01:14:27;;;;;;;5.63;5.03;;;7.40;53.10;;;;;;5070206;28;21000;-72
2023/04/06 01:16:54;;;;;;;5.23;4.70;;;7.30;53.00;;;;;;5070392;28;20448;-72
2023/04/06 01:19:23;;;;;;;6.32;5.30;;;7.30;52.90;;;;;;5070428;28;20510;-72
2023/04/06 01:21:52;;;;;;;5.70;4.93;;;7.30;52.90;;;;;;5070881;28;20197;-72
2023/04/06 01:24:21;;;;;;;6.87;5.17;;;7.30;53.10;;;;;;5069639;28;20486;-72
2023/04/06 01:26:48;;;;;;;5.50;4.73;;;7.30;53.20;;;;;;5070182;28;20486;-73
2023/04/06 01:29:15;;;;;;;6.20;4.90;;;7.30;53.00;;;;;;5070715;28;20447;-72
2023/04/06 01:31:42;;;;;;;5.87;5.03;;;7.30;53.00;;;;;;5070857;28;20451;-74
2023/04/06 01:34:09;;;;;;;6.10;5.30;;;7.30;53.00;;;;;;5070209;28;20447;-73
2023/04/06 01:36:36;;;;;;;7.17;5.53;;;7.20;53.10;;;;;;5070396;28;20501;-73
2023/04/06 01:39:03;;;;;;;7.07;5.03;;;7.20;53.20;;;;;;5070594;28;20487;-73
2023/04/06 01:41:32;;;;;;;5.27;4.63;;;7.20;53.40;;;;;;5070524;28;20471;-72
2023/04/06 01:43:59;;;;;;;8.70;5.20;;;7.20;53.70;;;;;;5069979;28;20475;-72
2023/04/06 01:46:26;;;;;;;6.63;4.50;;;7.20;54.00;;;;;;5070402;28;20483;-72
2023/04/06 01:48:53;;;;;;;7.63;4.90;;;7.20;54.20;;;;;;5034447;28;20452;-72
2023/04/06 01:51:20;;;;;;;5.97;4.83;;;7.20;54.10;;;;;;5070666;28;20991;-73
2023/04/06 01:53:48;;;;;;;6.13;5.10;;;7.10;54.20;;;;;;5073823;28;20484;-72
2023/04/06 01:56:15;;;;;;;7.70;5.53;;;7.10;54.20;;;;;;5064135;28;20542;-72
2023/04/06 01:58:43;;;;;;;6.93;5.50;;;7.10;54.20;;;;;;5074785;28;20478;-72
2023/04/06 02:01:10;;;;;;;7.37;5.83;;;7.10;54.20;;;;;;5074468;28;20459;-72
2023/04/06 02:03:37;;;;;;;7.43;5.83;;;7.00;54.20;;;;;;5074337;28;20470;-73
2023/04/06 02:06:05;;;;;;;6.60;4.93;;;7.00;54.30;;;;;;5074285;28;20456;-74
2023/04/06 02:08:32;;;;;;;7.30;5.30;;;7.00;54.20;;;;;;5074193;28;20447;-73
2023/04/06 02:10:59;;;;;;;5.57;4.77;;;7.00;54.10;;;;;;5074537;28;20464;-74
2023/04/06 02:13:26;;;;;;;6.97;5.00;;;7.00;54.00;;;;;;5074577;28;20828;-73
2023/04/06 02:15:54;;;;;;;8.13;5.60;;;7.00;54.20;;;;;;5073950;28;20471;-73
2023/04/06 02:18:22;;;;;;;6.03;5.13;;;7.00;54.20;;;;;;5073835;28;20448;-72
2023/04/06 02:20:49;;;;;;;5.33;4.80;;;6.90;54.10;;;;;;5074146;28;20491;-72
2023/04/06 02:23:16;;;;;;;6.67;5.53;;;6.90;54.20;;;;;;5073945;28;21020;-73
2023/04/06 02:25:43;;;;;;;5.60;4.97;;;6.90;54.10;;;;;;5074259;28;21045;-73
2023/04/06 02:28:10;;;;;;;6.67;5.53;;;6.90;54.40;;;;;;5074094;28;20451;-73
2023/04/06 02:30:37;;;;;;;7.40;5.67;;;6.90;54.40;;;;;;5074024;28;20456;-73
2023/04/06 02:33:05;;;;;;;6.20;5.60;;;6.80;54.40;;;;;;5073862;28;20504;-73
2023/04/06 02:35:33;;;;;;;7.03;5.40;;;6.80;54.50;;;;;;5073808;28;20534;-73
2023/04/06 02:37:59;;;;;;;7.00;5.10;;;6.80;54.60;;;;;;5073544;28;20805;-75
2023/04/06 02:40:26;;;;;;;5.97;4.53;;;6.80;54.60;;;;;;5074125;28;21014;-73
2023/04/06 02:42:54;;;;;;;8.53;5.63;;;6.80;54.70;;;;;;5073852;28;20501;-73
2023/04/06 02:45:21;;;;;;;7.43;4.97;;;6.70;54.70;;;;;;5073352;28;20479;-73
2023/04/06 02:47:48;;;;;;;8.30;5.00;;;6.70;54.70;;;;;;5073384;28;20988;-73
2023/04/06 02:50:16;;;;;;;6.40;5.03;;;6.70;54.60;;;;;;5073836;28;20478;-73
2023/04/06 02:52:43;;;;;;;5.00;4.40;;;6.70;54.60;;;;;;5073688;28;20853;-73
2023/04/06 02:55:10;;;;;;;5.83;4.87;;;6.70;54.60;;;;;;5073383;28;20509;-73
2023/04/06 02:57:37;;;;;;;5.60;4.67;;;6.70;54.60;;;;;;5073135;28;20513;-73
2023/04/06 03:00:06;;;;;;;6.97;5.10;;;6.70;54.80;;;;;;5073043;28;20483;-73
2023/04/06 03:02:33;;;;;;;5.97;5.30;;;6.60;54.90;;;;;;5074084;28;20212;-73
2023/04/06 03:05:01;;;;;;;7.37;5.37;;;6.60;54.90;;;;;;5072191;28;20259;-73
2023/04/06 03:07:29;;;;;;;5.78;5.07;;;6.50;54.70;;;;;;5073106;28;20459;-73
2023/04/06 03:09:56;;;;;;;5.80;5.20;;;6.50;54.80;;;;;;5072898;28;20313;-73
2023/04/06 03:12:23;;;;;;;5.73;5.17;;;6.50;55.00;;;;;;5072979;28;20707;-73
2023/04/06 03:14:50;;;;;;;5.87;5.27;;;6.50;54.80;;;;;;5072989;28;20451;-73
2023/04/06 03:17:17;;;;;;;8.03;5.80;;;6.50;54.70;;;;;;5073208;28;20451;-73
2023/04/06 03:19:44;;;;;;;5.17;4.60;;;6.50;54.70;;;;;;5072778;28;20499;-72
2023/04/06 03:22:11;;;;;;;6.50;5.00;;;6.50;54.90;;;;;;5073458;28;20491;-72
2023/04/06 03:24:39;;;;;;;6.85;4.80;;;6.50;54.70;;;;;;5073717;28;20209;-73
2023/04/06 03:27:07;;;;;;;5.43;4.93;;;6.40;54.90;;;;;;5072803;28;20225;-73
2023/04/06 03:29:34;;;;;;;5.83;4.70;;;6.40;55.00;;;;;;5073223;28;20465;-73
2023/04/06 03:32:01;;;;;;;7.60;5.13;;;6.40;55.10;;;;;;5072982;28;20459;-72
2023/04/06 03:34:28;;;;;;;6.20;5.07;;;6.40;55.30;;;;;;5071648;28;20516;-72
2023/04/06 03:36:55;;;;;;;5.55;4.95;;;6.40;55.10;;;;;;5073236;28;20205;-72
2023/04/06 03:39:22;;;;;;;6.00;5.18;;;6.40;55.20;;;;;;5073181;28;20684;-73
2023/04/06 03:41:51;;;;;;;6.67;5.30;;;6.30;55.20;;;;;;5073037;28;20213;-73
2023/04/06 03:44:17;;;;;;;6.63;5.63;;;6.30;55.20;;;;;;5073088;28;20447;-73
2023/04/06 03:46:45;;;;;;;7.37;6.03;;;6.30;55.30;;;;;;5072991;28;20510;-73
2023/04/06 03:49:11;;;;;;;9.13;5.80;;;6.30;55.70;;;;;;5071790;28;20447;-73
2023/04/06 03:51:39;;;;;;;6.55;5.07;;;6.30;55.80;;;;;;5072363;28;20308;-73
2023/04/06 03:54:06;;;;;;;5.90;5.10;;;6.20;55.70;;;;;;5072608;28;20206;-73
2023/04/06 03:56:33;;;;;;;8.10;5.33;;;6.20;55.70;;;;;;5071922;28;20459;-72
2023/04/06 03:59:01;;;;;;;6.07;4.77;;;6.20;55.50;;;;;;5072343;28;20447;-73
2023/04/06 04:01:28;;;;;;;9.18;4.88;;;6.20;55.50;;;;;;5071835;28;20494;-73
2023/04/06 04:03:55;;;;;;;5.53;4.97;;;6.20;55.70;;;;;;5066523;28;20290;-73
2023/04/06 04:06:23;;;;;;;7.57;4.80;;;6.10;55.70;;;;;;5071072;28;20967;-73
2023/04/06 04:08:50;;;;;;;7.77;5.60;;;6.10;56.00;;;;;;5072262;28;20229;-74
2023/04/06 04:11:17;;;;;;;7.80;5.30;;;6.10;55.80;;;;;;5055449;28;20452;-73
2023/04/06 04:13:44;;;;;;;7.88;5.30;;;6.20;55.70;;;;;;5071357;28;20469;-73
2023/04/06 04:16:12;;;;;;;7.03;5.60;;;6.20;55.70;;;;;;5071676;28;20209;-74
2023/04/06 04:18:39;;;;;;;7.13;5.30;;;6.10;55.50;;;;;;5071702;28;20455;-73
2023/04/06 04:21:07;;;;;;;7.65;5.47;;;6.10;56.00;;;;;;5072356;28;20225;-73
2023/04/06 04:23:34;;;;;;;7.35;5.57;;;6.10;55.70;;;;;;5071898;28;20458;-73
2023/04/06 04:26:01;;;;;;;6.80;6.10;;;6.10;55.80;;;;;;5072164;28;20259;-73
2023/04/06 04:28:28;;;;;;;8.30;6.37;;;6.10;55.90;;;;;;5071307;28;20455;-73
2023/04/06 04:30:55;;;;;;;7.20;5.88;;;6.00;55.80;;;;;;5071729;28;20447;-72
2023/04/06 04:33:24;;;;;;;10.10;6.63;;;6.00;55.60;;;;;;5071296;28;20242;-73
2023/04/06 04:35:51;;;;;;;8.05;6.30;;;6.00;55.60;;;;;;5070977;28;20259;-72
2023/04/06 04:38:19;;;;;;;7.28;6.38;;;6.00;55.50;;;;;;5071480;28;20205;-73
2023/04/06 04:40:46;;;;;;;7.55;6.15;;;6.00;55.50;;;;;;5071889;28;20221;-73
2023/04/06 04:43:13;;;;;;;7.00;6.30;;;6.00;55.60;;;;;;5071508;28;20201;-73
2023/04/06 04:45:40;;;;;;;9.95;6.40;;;5.90;55.40;;;;;;5068160;28;20479;-73
2023/04/06 04:48:08;;;;;;;7.43;6.27;;;6.00;55.50;;;;;;5068527;28;20642;-73
2023/04/06 04:50:36;;;;;;;8.73;5.57;;;6.00;56.10;;;;;;5070509;28;20456;-73
2023/04/06 04:53:05;;;;;;;6.40;5.60;;;6.00;56.00;;;;;;5071408;28;20231;-73
2023/04/06 04:55:32;;;;;;;6.00;5.40;;;5.90;55.90;;;;;;5071547;28;20483;-73
2023/04/06 04:57:59;;;;;;;7.40;5.40;;;5.90;55.80;;;;;;5071159;28;20456;-73
2023/04/06 05:00:26;;;;;;;5.97;5.10;;;5.90;55.80;;;;;;5070997;28;20252;-73
2023/04/06 05:02:53;;;;;;;5.85;5.25;;;5.90;55.80;;;;;;5071502;28;20213;-74
2023/04/06 05:05:20;;;;;;;7.38;5.40;;;5.90;56.00;;;;;;5070946;28;20193;-73
2023/04/06 05:07:49;;;;;;;5.80;5.20;;;5.90;56.00;;;;;;5070887;28;20205;-73
2023/04/06 05:10:16;;;;;;;7.30;5.85;;;5.90;56.00;;;;;;5070678;28;20577;-73
2023/04/06 05:12:43;;;;;;;6.70;5.80;;;5.90;56.00;;;;;;5071527;28;20250;-73
2023/04/06 05:15:11;;;;;;;6.28;5.68;;;5.90;56.30;;;;;;5070676;28;20204;-72
2023/04/06 05:17:38;;;;;;;6.85;5.25;;;5.90;56.10;;;;;;5031983;28;20202;-73
2023/04/06 05:20:07;;;;;;;8.05;4.85;;;5.80;56.30;;;;;;5071348;28;20266;-74
2023/04/06 05:22:34;;;;;;;7.20;6.00;;;5.90;56.60;;;;;;5071571;28;20717;-75
2023/04/06 05:25:02;;;;;;;6.80;5.75;;;5.90;56.40;;;;;;5072324;28;20463;-75
2023/04/06 05:27:29;;;;;;;5.57;4.77;;;5.90;56.50;;;;;;5071504;28;20201;-74
2023/04/06 05:29:56;;;;;;;9.13;5.50;;;5.90;56.50;;;;;;5071655;28;20454;-75
2023/04/06 05:32:24;;;;;;;9.13;5.60;;;5.90;56.60;;;;;;5061483;28;20246;-76
2023/04/06 05:34:51;;;;;;;6.43;5.55;;;5.90;56.50;;;;;;5071447;28;20862;-75
2023/04/06 05:37:18;;;;;;;7.07;5.70;;;5.90;56.60;;;;;;5071854;28;20198;-75
2023/04/06 05:39:45;;;;;;;6.35;5.75;;;6.00;56.90;;;;;;5070565;28;20209;-73
2023/04/06 05:42:13;;;;;;;7.03;6.28;;;6.00;57.00;;;;;;5072015;28;20205;-75
2023/04/06 05:44:40;;;;;;;7.97;5.80;;;6.00;56.90;;;;;;5071546;28;20217;-75
2023/04/06 05:47:07;;;;;;;7.30;5.78;;;6.00;56.70;;;;;;5071161;28;20510;-74
2023/04/06 05:49:35;;;;;;;7.22;5.53;;;6.00;56.70;;;;;;5072015;28;20201;-74
2023/04/06 05:52:02;;;;;;;6.65;5.60;;;6.10;56.80;;;;;;5072088;28;20208;-74
2023/04/06 05:54:29;;;;;;;6.30;5.47;;;6.10;56.80;;;;;;5071793;28;20251;-75
2023/04/06 05:56:56;;;;;;;7.55;5.90;;;6.10;56.90;;;;;;5071444;28;20982;-76
2023/04/06 05:59:24;;;;;;;7.22;5.93;;;6.20;57.00;;;;;;5072316;28;20193;-75
2023/04/06 06:01:51;;;;;;;6.37;5.73;;;6.20;57.00;;;;;;5070810;28;20267;-75
2023/04/06 06:04:18;;;;;;;7.88;5.97;;;6.20;57.20;;;;;;5071098;28;20549;-74
2023/04/06 06:06:45;;;;;;;6.67;5.97;;;6.20;56.80;;;;;;5051922;28;20262;-74
2023/04/06 06:09:12;;;;;;;7.53;6.20;;;6.30;56.60;;;;;;5070717;28;20539;-74
2023/04/06 06:11:40;;;;;;;5.60;5.10;;;6.30;56.60;;;;;;5071305;28;20479;-72
2023/04/06 06:14:07;;;;;;;7.37;5.57;;;6.30;56.40;;;;;;5069794;28;20444;-72
2023/04/06 06:16:36;;;;;;;6.57;5.75;;;6.30;56.60;;;;;;5069609;28;20508;-73
2023/04/06 06:19:03;;;;;;;9.90;5.70;;;6.40;56.70;;;;;;5069418;28;20204;-72
2023/04/06 06:21:30;;;;;;;6.57;5.67;;;6.40;56.60;;;;;;5070494;28;20494;-75
2023/04/06 06:23:57;;;;;;;6.70;5.80;;;6.50;56.80;;;;;;5070496;28;20814;-75
2023/04/06 06:26:24;;;;;;;7.57;6.33;;;6.50;57.10;;;;;;5070910;28;20447;-75
2023/04/06 06:28:51;;;;;;;6.77;5.57;;;6.50;57.10;;;;;;5070107;28;20505;-74
2023/04/06 06:31:20;;;;;;;7.63;5.53;;;6.50;57.30;;;;;;5070167;28;20448;-74
2023/04/06 06:33:51;;;;;;;6.77;5.10;;;6.60;57.30;;;;;;5070672;28;20474;-74
2023/04/06 06:36:18;;;;;;;6.77;5.67;;;6.60;57.30;;;;;;5070281;28;20455;-73
2023/04/06 06:38:45;;;;;;;8.30;5.33;;;6.70;57.20;;;;;;5071659;28;21041;-71
2023/04/06 06:41:12;;;;;;;7.07;5.50;;;6.80;57.00;;;;;;5073487;28;20524;-74
2023/04/06 06:43:39;;;;;;;6.80;4.70;;;6.80;57.30;;;;;;5038794;28;20447;-74
2023/04/06 06:46:06;;;;;;;6.40;4.90;;;6.90;57.00;;;;;;5073847;28;21124;-74
2023/04/06 06:48:33;;;;;;;6.57;5.67;;;7.00;57.20;;;;;;5073993;28;20486;-74
2023/04/06 06:51:02;;;;;;;7.03;5.10;;;7.00;57.20;;;;;;5073355;28;20951;-75
2023/04/06 06:53:29;;;;;;;8.93;5.23;;;7.10;57.60;;;;;;5074496;28;20788;-75
2023/04/06 06:55:56;;;;;;;5.80;4.90;;;7.20;56.90;;;;;;5074571;28;20459;-75
2023/04/06 06:58:23;;;;;;;5.43;4.93;;;7.40;56.50;;;;;;5074807;28;20508;-75
2023/04/06 07:00:50;;;;;;;5.23;4.73;;;7.40;55.80;;;;;;5074878;28;20520;-75
2023/04/06 07:03:17;;;;;;;5.23;4.63;;;7.40;55.60;;;;;;5074949;28;20524;-76
2023/04/06 07:05:52;;;;;;;5.53;5.00;;;7.50;55.50;;;;;;5074079;28;20501;-76
2023/04/06 07:08:22;;;;;;;6.97;4.73;;;7.60;55.00;;;;;;5071320;28;20459;-76
2023/04/06 07:10:52;;;;;;;7.20;4.93;;;7.70;55.10;;;;;;5065027;28;20459;-75
2023/04/06 07:13:22;;;;;;;8.67;4.43;;;7.90;54.80;;;;;;5072786;28;20909;-68
2023/04/06 07:15:49;;;;;;;5.53;4.30;;;8.00;55.00;;;;;;5053058;28;20452;-70
2023/04/06 07:18:16;;;;;;;5.50;4.67;;;8.10;54.20;;;;;;5053390;28;20472;-69
2023/04/06 07:20:43;;;;;;;7.60;4.87;;;8.30;53.90;;;;;;5072419;28;20483;-68
2023/04/06 07:23:10;;;;;;;6.30;4.87;;;8.40;53.60;;;;;;5072414;28;20455;-68
2023/04/06 07:25:39;;;;;;;7.13;4.67;;;8.50;53.50;;;;;;5072380;28;20512;-69
2023/04/06 07:28:06;;;;;;;4.67;4.27;;;8.60;53.30;;;;;;5072588;28;20446;-69
2023/04/06 07:30:33;;;;;;;5.17;4.67;;;8.70;53.10;;;;;;5072343;28;20463;-69
2023/04/06 07:33:00;;;;;;;5.00;4.53;;;8.80;53.40;;;;;;5071859;28;20546;-69
2023/04/06 07:35:29;;;;;;;5.40;4.80;;;8.90;53.10;;;;;;5072143;28;20451;-69
2023/04/06 07:37:57;;;;;;;5.77;4.53;;;9.00;52.60;;;;;;5072820;28;20455;-69
2023/04/06 07:40:25;;;;;;;5.40;4.87;;;9.10;52.70;;;;;;5071777;28;20510;-69
2023/04/06 07:42:54;;;;;;;6.37;4.70;;;9.20;52.30;;;;;;5071690;28;20458;-68
2023/04/06 07:45:21;;;;;;;4.93;4.43;;;9.30;51.90;;;;;;5072596;28;20528;-69
2023/04/06 07:47:49;;;;;;;8.50;5.00;;;9.50;52.00;;;;;;5072478;28;20896;-69
2023/04/06 07:50:16;;;;;;;4.93;4.40;;;9.60;51.70;;;;;;5071492;28;20955;-69
2023/04/06 07:52:44;;;;;;;6.03;4.43;;;9.70;50.20;;;;;;5078226;28;20551;-69
2023/04/06 07:55:11;;;;;;;5.97;4.57;;;9.80;50.20;;;;;;5073597;28;21055;-70
2023/04/06 07:57:38;;;;;;;8.50;5.73;;;9.90;50.10;;;;;;5072484;28;20501;-69
2023/04/06 08:00:10;;;;;;;5.70;4.00;;;10.00;49.20;;;;;;5072158;28;20452;-69
2023/04/06 08:02:37;;;;;;;5.17;4.13;;;10.00;49.10;;;;;;5071843;28;20479;-69
2023/04/06 08:05:04;;;;;;;9.00;4.70;;;10.20;49.20;;;;;;5071198;28;20451;-69
2023/04/06 08:07:31;;;;;;;5.40;4.60;;;10.30;48.40;;;;;;5072392;28;20868;-69
2023/04/06 08:09:58;;;;;;;6.47;4.60;;;10.40;48.00;;;;;;5072199;28;20455;-69
2023/04/06 08:12:25;;;;;;;5.00;4.40;;;10.50;48.10;;;;;;5071556;28;20471;-70
2023/04/06 08:14:52;;;;;;;5.27;4.70;;;10.70;48.60;;;;;;5071203;28;20512;-69
2023/04/06 08:17:20;;;;;;;5.47;4.60;;;10.80;48.10;;;;;;5071531;28;20443;-68
2023/04/06 08:19:47;;;;;;;5.60;4.27;;;11.00;47.40;;;;;;5071377;28;20661;-67
2023/04/06 08:22:14;;;;;;;6.53;4.97;;;11.00;46.90;;;;;;5071234;28;20483;-69
2023/04/06 08:24:41;;;;;;;5.77;4.17;;;11.10;46.70;;;;;;5071514;28;20971;-68
2023/04/06 08:27:09;;;;;;;5.47;4.83;;;11.20;46.20;;;;;;5071707;28;20451;-69
2023/04/06 08:29:36;;;;;;;5.30;4.50;;;11.20;46.20;;;;;;5071117;28;20493;-65
2023/04/06 08:32:04;;;;;;;6.63;4.53;;;11.30;47.00;;;;;;5071473;28;20451;-67
2023/04/06 08:34:33;;;;;;;5.37;4.87;;;11.30;46.00;;;;;;5070293;28;20976;-66
2023/04/06 08:37:00;;;;;;;5.63;4.80;;;11.40;46.40;;;;;;5069127;28;20502;-65
2023/04/06 08:39:28;;;;;;;5.40;4.83;;;11.60;46.50;;;;;;5071499;28;20447;-65
2023/04/06 08:41:59;;;;;;;5.47;4.50;;;11.80;45.60;;;;;;5071203;28;20574;-65
2023/04/06 08:44:26;;;;;;;6.93;4.63;;;11.80;45.10;;;;;;5070588;28;20479;-65
2023/04/06 08:46:53;;;;;;;6.53;4.70;;;11.90;45.40;;;;;;5070854;28;20443;-65
2023/04/06 08:49:21;;;;;;;4.97;4.40;;;12.00;45.70;;;;;;5070829;28;20542;-66
2023/04/06 08:51:50;;;;;;;6.57;5.00;;;12.10;45.20;;;;;;5070928;28;20509;-66
2023/04/06 08:54:17;;;;;;;6.80;4.60;;;12.20;44.90;;;;;;5070494;28;20483;-66
2023/04/06 08:56:45;;;;;;;8.33;4.60;;;12.40;43.50;;;;;;5070551;28;20459;-65
2023/04/06 08:59:12;;;;;;;5.00;4.50;;;12.40;43.40;;;;;;5070804;28;20447;-65
2023/04/06 09:01:42;;;;;;;4.73;4.20;;;12.50;43.00;;;;;;5070122;28;20552;-65
2023/04/06 09:04:10;;;;;;;5.67;4.47;;;12.60;43.40;;;;;;5070335;28;20523;-65
2023/04/06 09:06:38;;;;;;;5.50;4.63;;;12.70;43.50;;;;;;5070272;28;20451;-66
2023/04/06 09:09:06;;;;;;;5.27;4.30;;;12.80;43.00;;;;;;5070292;28;20483;-64
2023/04/06 09:11:44;;;;;;;5.30;4.80;;;12.90;42.10;;;;;;5070215;28;20963;-66
2023/04/06 09:14:11;;;;;;;5.97;4.30;;;12.90;41.50;;;;;;5070150;28;20449;-65
2023/04/06 09:16:42;;;;;;;5.47;4.50;;;13.00;41.90;;;;;;5070396;28;20477;-65
2023/04/06 09:19:10;;;;;;;5.83;4.40;;;13.20;41.90;;;;;;5070803;28;20526;-66
2023/04/06 09:21:37;;;;;;;5.73;4.40;;;13.30;42.30;;;;;;5070329;28;20478;-65
2023/04/06 09:24:10;;;;;;;6.23;4.70;;;13.50;42.00;;;;;;5070068;28;20467;-65
2023/04/06 09:26:47;;;;;;;5.27;4.77;;;13.60;41.40;;;;;;5070672;28;20443;-66
2023/04/06 09:29:26;;;;;;;5.23;4.73;;;13.70;41.10;;;;;;5070224;28;20447;-65
2023/04/06 09:31:53;;;;;;;5.03;4.53;;;13.80;41.10;;;;;;5069853;28;20478;-67
2023/04/06 09:34:24;;;;;;;6.10;4.77;;;13.90;41.10;;;;;;5070229;28;20496;-67
2023/04/06 09:36:51;;;;;;;6.13;4.83;;;14.10;41.40;;;;;;5070188;28;20454;-66
2023/04/06 09:39:23;;;;;;;8.20;5.30;;;14.20;40.70;;;;;;5070108;28;20462;-65
2023/04/06 09:41:52;;;;;;;6.03;5.10;;;14.30;40.70;;;;;;5070359;28;20479;-65
2023/04/06 09:44:19;;;;;;;6.50;5.03;;;14.30;40.20;;;;;;5069858;28;20501;-66
2023/04/06 09:46:47;;;;;;;5.50;5.00;;;14.40;40.30;;;;;;5069951;28;20454;-66
2023/04/06 09:49:15;;;;;;;5.90;5.03;;;14.40;40.30;;;;;;5069949;28;20935;-66
2023/04/06 09:51:45;;;;;;;5.87;5.23;;;14.60;40.50;;;;;;5070444;28;20550;-67
2023/04/06 09:54:16;;;;;;;5.90;5.20;;;14.70;39.90;;;;;;5070204;28;20538;-65
2023/04/06 09:56:47;;;;;;;6.23;5.30;;;14.80;39.50;;;;;;5070075;28;20596;-65
2023/04/06 09:59:20;;;;;;;7.47;5.47;;;14.90;40.00;;;;;;5070140;28;20459;-66
2023/04/06 10:01:51;;;;;;;7.73;4.80;;;15.00;39.60;;;;;;5069600;28;20489;-66
2023/04/06 10:04:30;;;;;;;5.93;4.90;;;15.10;39.30;;;;;;5069907;28;20457;-66
2023/04/06 10:06:57;;;;;;;7.03;5.70;;;15.20;38.90;;;;;;5069813;28;20486;-66
2023/04/06 10:09:29;;;;;;;5.97;5.33;;;15.20;38.30;;;;;;5070043;28;20862;-67
2023/04/06 10:11:59;;;;;;;6.20;5.60;;;15.30;39.40;;;;;;5069742;28;20470;-65
2023/04/06 10:14:26;;;;;;;6.13;5.13;;;15.50;38.60;;;;;;5072655;28;20845;-66
2023/04/06 10:16:54;;;;;;;7.67;5.33;;;15.60;38.00;;;;;;5073601;28;20524;-65
2023/04/06 10:19:28;;;;;;;6.83;6.00;;;15.80;37.50;;;;;;5074118;28;20500;-66
2023/04/06 10:21:58;;;;;;;6.80;5.60;;;15.80;36.60;;;;;;5073529;28;20863;-66
2023/04/06 10:24:26;;;;;;;6.13;5.53;;;15.80;37.20;;;;;;5073619;28;20447;-66
2023/04/06 10:27:02;;;;;;;6.07;5.10;;;15.90;37.30;;;;;;5073132;28;20451;-65
2023/04/06 10:29:41;;;;;;;7.20;5.80;;;16.00;37.70;;;;;;5073535;28;20455;-66
2023/04/06 10:32:08;;;;;;;5.60;5.10;;;16.20;36.40;;;;;;5073846;28;20501;-65
2023/04/06 10:34:36;;;;;;;8.27;5.47;;;16.40;36.60;;;;;;5054117;28;20928;-66
2023/04/06 10:37:12;;;;;;;6.67;5.70;;;16.60;35.90;;;;;;5071198;28;20451;-66
2023/04/06 10:39:47;;;;;;;6.67;5.53;;;16.70;34.50;;;;;;5074237;28;20997;-65
2023/04/06 10:42:16;;;;;;;6.97;4.90;;;16.80;34.10;;;;;;5073856;28;20514;-68
2023/04/06 10:44:46;;;;;;;5.53;5.03;;;16.80;33.80;;;;;;5073194;28;20962;-66
2023/04/06 10:47:19;;;;;;;9.13;6.13;;;17.00;34.80;;;;;;5071913;28;20830;-65
2023/04/06 10:49:46;;;;;;;7.60;6.17;;;17.10;34.00;;;;;;5072526;28;20759;-65
2023/04/06 10:52:13;;;;;;;6.17;5.63;;;17.20;34.40;;;;;;5073797;28;20463;-67
2023/04/06 10:54:43;;;;;;;6.53;5.27;;;17.10;33.70;;;;;;5073970;28;20451;-66
2023/04/06 10:57:10;;;;;;;6.87;5.93;;;17.30;34.30;;;;;;5073260;28;20538;-66
2023/04/06 10:59:43;;;;;;;6.60;5.40;;;17.30;33.60;;;;;;5073599;28;20516;-66
2023/04/06 11:02:19;;;;;;;5.67;5.03;;;17.50;34.00;;;;;;5073275;28;20863;-68
2023/04/06 11:04:55;;;;;;;6.37;5.70;;;17.70;33.10;;;;;;5073590;28;20479;-67
2023/04/06 11:07:25;;;;;;;5.50;5.00;;;17.90;32.70;;;;;;5073319;28;20985;-66
2023/04/06 11:09:52;;;;;;;5.30;4.80;;;17.90;32.10;;;;;;5073709;28;20211;-66
2023/04/06 11:12:24;;;;;;;6.43;5.07;;;17.90;31.50;;;;;;5073201;28;20536;-68
2023/04/06 11:15:00;;;;;;;5.60;5.00;;;18.10;32.00;;;;;;5073258;28;20447;-67
2023/04/06 11:17:28;;;;;;;6.57;5.50;;;18.20;31.20;;;;;;5073171;28;20451;-66
2023/04/06 11:19:55;;;;;;;7.00;5.47;;;18.40;31.80;;;;;;5073651;28;20209;-66
2023/04/06 11:22:22;;;;;;;7.40;6.13;;;18.50;30.80;;;;;;5077104;28;20497;-66
2023/04/06 11:24:49;;;;;;;6.03;5.27;;;18.40;30.30;;;;;;5090346;28;20282;-67
2023/04/06 11:27:17;;;;;;;5.87;5.07;;;18.50;30.70;;;;;;5078434;28;20919;-67
2023/04/06 11:29:46;;;;;;;6.30;5.13;;;18.50;31.00;;;;;;5073467;28;20641;-66
2023/04/06 11:32:22;;;;;;;6.20;5.60;;;18.70;30.70;;;;;;5074422;28;20206;-66
2023/04/06 11:34:49;;;;;;;6.30;5.70;;;18.80;30.70;;;;;;5073202;28;20474;-67
2023/04/06 11:37:16;;;;;;;5.63;5.00;;;18.90;30.60;;;;;;5072698;28;20233;-67
2023/04/06 11:39:48;;;;;;;5.77;5.13;;;18.90;30.80;;;;;;5073118;28;20292;-66
2023/04/06 11:42:22;;;;;;;6.83;5.07;;;19.20;31.90;;;;;;5072510;28;20483;-66
2023/04/06 11:44:52;;;;;;;6.63;5.50;;;19.50;31.40;;;;;;5072723;28;20285;-66
2023/04/06 11:47:27;;;;;;;6.57;5.87;;;19.60;30.50;;;;;;5071638;28;20271;-66
2023/04/06 11:49:54;;;;;;;6.90;5.90;;;19.70;30.60;;;;;;5072780;28;20451;-65
2023/04/06 11:52:24;;;;;;;6.63;5.17;;;19.50;28.60;;;;;;5072517;28;20201;-66
2023/04/06 11:54:52;;;;;;;7.07;5.93;;;19.30;29.80;;;;;;5072650;28;20217;-66
2023/04/06 11:57:21;;;;;;;7.33;6.03;;;19.30;29.70;;;;;;5072157;28;20225;-65
2023/04/06 11:59:48;;;;;;;6.80;5.40;;;19.30;29.60;;;;;;5072669;28;20205;-68
2023/04/06 12:02:15;;;;;;;6.40;5.70;;;19.50;30.20;;;;;;5072242;28;20213;-66
2023/04/06 12:04:43;;;;;;;7.53;5.60;;;19.60;30.00;;;;;;5072104;28;20273;-66
2023/04/06 12:07:10;;;;;;;5.80;5.20;;;19.40;29.40;;;;;;5071931;28;20267;-66
2023/04/06 12:09:38;;;;;;;7.53;6.03;;;19.20;30.00;;;;;;5073071;28;20205;-66
2023/04/06 12:12:05;;;;;;;7.90;5.93;;;19.20;28.90;;;;;;5072972;28;20616;-68
2023/04/06 12:14:32;;;;;;;5.97;5.33;;;19.20;28.70;;;;;;5073550;28;20205;-66
2023/04/06 12:16:59;;;;;;;6.13;5.53;;;19.20;29.20;;;;;;5072903;28;20236;-67
2023/04/06 12:19:26;;;;;;;6.03;5.43;;;19.30;29.70;;;;;;5073426;28;20443;-66
2023/04/06 12:21:56;;;;;;;7.30;4.93;;;19.40;28.80;;;;;;5072805;28;20288;-66
2023/04/06 12:24:23;;;;;;;5.70;5.20;;;19.40;29.00;;;;;;5073198;28;20763;-66
2023/04/06 12:26:50;;;;;;;6.83;5.47;;;19.30;28.70;;;;;;5072533;28;20738;-65
2023/04/06 12:29:17;;;;;;;6.70;5.60;;;19.30;29.20;;;;;;5072948;28;20740;-66
2023/04/06 12:31:44;;;;;;;7.40;5.70;;;19.20;28.90;;;;;;5072851;28;20262;-67
2023/04/06 12:34:11;;;;;;;5.77;5.17;;;19.20;29.30;;;;;;5073289;28;20213;-66
2023/04/06 12:36:39;;;;;;;7.90;5.40;;;19.30;29.30;;;;;;5072564;28;20233;-66
2023/04/06 12:39:07;;;;;;;6.73;5.10;;;19.50;29.20;;;;;;5072754;28;20205;-66
2023/04/06 12:41:35;;;;;;;6.57;5.40;;;19.60;29.20;;;;;;5072540;28;20645;-66
2023/04/06 12:44:02;;;;;;;6.03;5.13;;;19.80;29.10;;;;;;5071225;28;20270;-67
2023/04/06 12:46:30;;;;;;;6.03;5.43;;;19.90;28.60;;;;;;5072735;28;20732;-66
2023/04/06 12:48:58;;;;;;;5.70;5.03;;;20.00;28.30;;;;;;5072466;28;20416;-67
2023/04/06 12:51:28;;;;;;;5.83;5.03;;;20.10;27.90;;;;;;5072520;28;20213;-67
2023/04/06 12:53:55;;;;;;;5.53;5.00;;;20.20;28.50;;;;;;5072305;28;20198;-67
2023/04/06 12:56:23;;;;;;;6.50;4.80;;;20.30;28.00;;;;;;5072272;28;20207;-66